createdAt,value
2018-12-14T00:02:34.174Z,98996.16
2018-12-14T00:04:04.304Z,98997.78
2018-12-14T00:05:34.308Z,99001.20
2018-12-14T00:07:04.316Z,99008.44
2018-12-14T00:08:34.194Z,99006.98
2018-12-14T00:10:04.912Z,99000.13
2018-12-14T00:11:35.060Z,99001.04
2018-12-14T00:13:05.100Z,98995.97
2018-12-14T00:14:34.990Z,98998.34
2018-12-14T00:16:05.116Z,98994.53
2018-12-14T00:17:35.003Z,98999.04
2018-12-14T00:19:05.082Z,99001.73
2018-12-14T00:20:34.951Z,99001.20
2018-12-14T00:22:05.087Z,98999.94
2018-12-14T00:23:35.003Z,99000.86
2018-12-14T00:25:05.618Z,99000.47
2018-12-14T00:26:35.506Z,98996.16
2018-12-14T00:28:05.611Z,98999.95
2018-12-14T00:29:35.516Z,98994.72
2018-12-14T00:31:05.416Z,99006.44
2018-12-14T00:32:35.518Z,99007.34
2018-12-14T00:34:05.423Z,99007.16
2018-12-14T00:35:35.427Z,99008.59
2018-12-14T00:37:05.318Z,99009.13
2018-12-14T00:38:43.279Z,99009.13
2018-12-14T00:40:13.390Z,99014.92
2018-12-14T00:41:43.289Z,99016.34
2018-12-14T00:43:13.172Z,99011.11
2018-12-14T00:44:43.074Z,99011.47
2018-12-14T00:46:13.200Z,99015.45
2018-12-14T00:47:43.203Z,99017.96
2018-12-14T00:49:13.318Z,99019.41
2018-12-14T00:50:43.195Z,99010.58
2018-12-14T00:52:13.186Z,99015.64
2018-12-14T00:53:43.076Z,99013.47
2018-12-14T00:55:12.963Z,99006.61
2018-12-14T00:56:42.847Z,99006.08
2018-12-14T00:58:12.730Z,99005.33
2018-12-14T00:59:42.627Z,99006.41
2018-12-14T01:01:12.511Z,99007.14
2018-12-14T01:02:42.407Z,99005.52
2018-12-14T01:04:12.303Z,99007.15
2018-12-14T01:05:43.066Z,99009.48
2018-12-14T01:07:13.063Z,99008.39
2018-12-14T01:08:42.956Z,99010.20
2018-12-14T01:10:12.990Z,99007.65
2018-12-14T01:11:43.126Z,99013.79
2018-12-14T01:13:13.015Z,99008.41
2018-12-14T01:14:42.902Z,99010.19
2018-12-14T01:16:13.006Z,99008.73
2018-12-14T01:17:42.883Z,99012.56
2018-12-14T01:19:12.769Z,99009.33
2018-12-14T01:20:42.674Z,99012.20
2018-12-14T01:22:12.555Z,99009.48
2018-12-14T01:23:42.563Z,99017.80
2018-12-14T01:25:12.571Z,99019.23
2018-12-14T01:26:42.458Z,99012.75
2018-12-14T01:28:12.351Z,99014.01
2018-12-14T01:29:42.271Z,99018.33
2018-12-14T01:31:12.158Z,99021.22
2018-12-14T01:32:42.174Z,99022.11
2018-12-14T01:34:12.050Z,99019.97
2018-12-14T01:35:41.945Z,99018.87
2018-12-14T01:37:20.034Z,99021.96
2018-12-14T01:38:49.910Z,99019.23
2018-12-14T01:40:19.815Z,99024.83
2018-12-14T01:41:49.822Z,99024.66
2018-12-14T01:43:19.714Z,99021.75
2018-12-14T01:44:49.612Z,99025.20
2018-12-14T01:46:19.495Z,99028.81
2018-12-14T01:47:49.490Z,99022.49
2018-12-14T01:49:19.376Z,99029.17
2018-12-14T01:50:49.271Z,99023.58
2018-12-14T01:52:19.987Z,99025.19
2018-12-14T01:53:49.974Z,99021.75
2018-12-14T01:55:20.010Z,99022.30
2018-12-14T01:56:50.002Z,99013.30
2018-12-14T01:58:19.887Z,99009.69
2018-12-14T01:59:49.783Z,99014.19
2018-12-14T02:01:19.663Z,99014.73
2018-12-14T02:02:49.542Z,99008.77
2018-12-14T02:04:19.540Z,99001.91
2018-12-14T02:05:49.529Z,99003.39
2018-12-14T02:07:19.522Z,99001.91
2018-12-14T02:08:49.416Z,98996.86
2018-12-14T02:10:19.313Z,99000.48
2018-12-14T02:11:49.217Z,99001.02
2018-12-14T02:13:19.115Z,99001.75
2018-12-14T02:14:49.012Z,98997.42
2018-12-14T02:16:18.899Z,99000.64
2018-12-14T02:17:48.775Z,99000.30
2018-12-14T02:19:18.671Z,99001.36
2018-12-14T02:20:48.595Z,98998.30
2018-12-14T02:22:46.418Z,99000.27
2018-12-14T02:24:16.308Z,98996.11
2018-12-14T02:25:46.311Z,98994.15
2018-12-14T02:27:16.190Z,98994.15
2018-12-14T02:28:46.106Z,98990.00
2018-12-14T02:30:27.522Z,98988.02
2018-12-14T02:31:57.403Z,98996.16
2018-12-14T02:33:27.275Z,99003.55
2018-12-14T02:34:57.276Z,99000.30
2018-12-14T02:36:27.286Z,99003.91
2018-12-14T02:37:57.399Z,99002.98
2018-12-14T02:39:27.278Z,99004.08
2018-12-14T02:40:57.165Z,98997.41
2018-12-14T02:42:27.174Z,98996.86
2018-12-14T02:43:57.170Z,98994.72
2018-12-14T02:45:27.375Z,98998.69
2018-12-14T02:46:57.251Z,98997.80
2018-12-14T02:48:27.835Z,99000.86
2018-12-14T02:49:57.745Z,98998.85
2018-12-14T02:51:27.738Z,99003.73
2018-12-14T02:52:57.610Z,99004.08
2018-12-14T02:54:27.491Z,99004.64
2018-12-14T02:55:57.397Z,99002.64
2018-12-14T02:57:27.404Z,99007.16
2018-12-14T02:58:57.300Z,99003.17
2018-12-14T03:00:27.447Z,99004.44
2018-12-14T03:01:57.463Z,98996.68
2018-12-14T03:03:27.498Z,98995.25
2018-12-14T03:04:57.412Z,98998.12
2018-12-14T03:06:27.298Z,99001.38
2018-12-14T03:07:57.324Z,98995.97
2018-12-14T03:09:27.206Z,99000.11
2018-12-14T03:10:57.112Z,98992.20
2018-12-14T03:12:27.117Z,99002.83
2018-12-14T03:13:57.236Z,98999.59
2018-12-14T03:15:27.155Z,98993.45
2018-12-14T03:16:57.268Z,98993.63
2018-12-14T03:18:27.371Z,98999.03
2018-12-14T03:19:57.607Z,98991.80
2018-12-14T03:21:27.490Z,98992.36
2018-12-14T03:22:57.378Z,98992.00
2018-12-14T03:24:27.277Z,98996.70
2018-12-14T03:25:57.426Z,98999.39
2018-12-14T03:27:27.321Z,98996.34
2018-12-14T03:28:57.215Z,99002.63
2018-12-14T03:30:27.193Z,99000.86
2018-12-14T03:31:57.353Z,99001.21
2018-12-14T03:33:27.349Z,99003.02
2018-12-14T03:34:57.342Z,99001.91
2018-12-14T03:36:27.231Z,99000.48
2018-12-14T03:37:57.127Z,98995.98
2018-12-14T03:39:27.012Z,98991.11
2018-12-14T03:40:56.906Z,98992.55
2018-12-14T03:42:33.930Z,98993.08
2018-12-14T03:43:58.803Z,98994.55
2018-12-14T03:45:28.699Z,98993.82
2018-12-14T03:46:58.623Z,98988.75
2018-12-14T03:48:28.500Z,98988.92
2018-12-14T03:49:58.375Z,98992.89
2018-12-14T03:51:28.407Z,98989.48
2018-12-14T03:52:58.270Z,98993.61
2018-12-14T03:54:28.262Z,98995.98
2018-12-14T03:55:58.261Z,98992.02
2018-12-14T03:57:28.131Z,98988.76
2018-12-14T03:58:58.003Z,98992.38
2018-12-14T04:00:28.211Z,98992.91
2018-12-14T04:01:58.219Z,98993.80
2018-12-14T04:03:28.095Z,98987.48
2018-12-14T04:04:57.950Z,98990.73
2018-12-14T04:06:27.822Z,98990.19
2018-12-14T04:07:57.706Z,98988.75
2018-12-14T04:09:27.665Z,98991.98
2018-12-14T04:10:57.560Z,98986.78
2018-12-14T04:12:27.544Z,98992.36
2018-12-14T04:13:57.427Z,98986.06
2018-12-14T04:15:27.299Z,98984.61
2018-12-14T04:16:57.182Z,98984.08
2018-12-14T04:18:27.068Z,98982.09
2018-12-14T04:19:56.942Z,98977.39
2018-12-14T04:21:26.936Z,98975.58
2018-12-14T04:22:56.903Z,98981.55
2018-12-14T04:24:26.776Z,98980.63
2018-12-14T04:25:56.668Z,98972.16
2018-12-14T04:27:26.520Z,98974.52
2018-12-14T04:28:56.395Z,98977.94
2018-12-14T04:30:26.278Z,98976.13
2018-12-14T04:31:56.155Z,98977.57
2018-12-14T04:33:26.418Z,98981.19
2018-12-14T04:34:56.279Z,98983.88
2018-12-14T04:36:26.280Z,98982.42
2018-12-14T04:37:56.373Z,98982.63
2018-12-14T04:39:26.254Z,98987.69
2018-12-14T04:40:56.489Z,98983.88
2018-12-14T04:42:26.638Z,98990.02
2018-12-14T04:43:56.507Z,98987.14
2018-12-14T04:45:26.639Z,98983.54
2018-12-14T04:46:57.032Z,98987.16
2018-12-14T04:48:27.054Z,98980.10
2018-12-14T04:49:57.052Z,98982.45
2018-12-14T04:51:26.925Z,98977.23
2018-12-14T04:52:56.795Z,98981.19
2018-12-14T04:54:26.696Z,98982.45
2018-12-14T04:55:56.790Z,98979.92
2018-12-14T04:57:26.774Z,98983.53
2018-12-14T04:58:57.039Z,98980.66
2018-12-14T05:00:27.035Z,98981.17
2018-12-14T05:01:56.910Z,98982.99
2018-12-14T05:03:26.781Z,98982.80
2018-12-14T05:04:56.748Z,98984.78
2018-12-14T05:06:26.730Z,98991.64
2018-12-14T05:07:56.607Z,98981.19
2018-12-14T05:09:26.574Z,98990.73
2018-12-14T05:10:56.576Z,98990.76
2018-12-14T05:12:26.682Z,98990.55
2018-12-14T05:13:56.554Z,98993.81
2018-12-14T05:15:26.449Z,98993.81
2018-12-14T05:16:56.327Z,98997.97
2018-12-14T05:18:26.414Z,98999.94
2018-12-14T05:19:56.319Z,99003.39
2018-12-14T05:21:26.314Z,99000.47
2018-12-14T05:22:56.306Z,99007.17
2018-12-14T05:24:26.171Z,98992.20
2018-12-14T05:25:56.090Z,98999.58
2018-12-14T05:27:26.109Z,99000.86
2018-12-14T05:28:56.111Z,99001.56
2018-12-14T05:30:26.114Z,99008.79
2018-12-14T05:31:56.009Z,99008.79
2018-12-14T05:33:26.046Z,99001.73
2018-12-14T05:34:55.911Z,98999.94
2018-12-14T05:36:25.807Z,99010.77
2018-12-14T05:37:55.675Z,99007.70
2018-12-14T05:39:25.555Z,99014.73
2018-12-14T05:40:55.444Z,99019.44
2018-12-14T05:42:25.314Z,99009.14
2018-12-14T05:43:55.180Z,99013.47
2018-12-14T05:45:25.090Z,99015.28
2018-12-14T05:46:54.969Z,99013.45
2018-12-14T05:48:24.855Z,99014.02
2018-12-14T05:49:54.751Z,99014.75
2018-12-14T05:51:24.758Z,99023.75
2018-12-14T05:52:54.656Z,99015.82
2018-12-14T05:54:24.640Z,99019.59
2018-12-14T05:55:54.547Z,99014.75
2018-12-14T05:57:24.430Z,99020.34
2018-12-14T05:58:54.347Z,99015.83
2018-12-14T06:00:24.246Z,99021.58
2018-12-14T06:01:54.143Z,99018.33
2018-12-14T06:03:24.255Z,99020.33
2018-12-14T06:04:54.154Z,99022.29
2018-12-14T06:06:24.043Z,99026.47
2018-12-14T06:07:53.931Z,99022.85
2018-12-14T06:09:23.831Z,99023.94
2018-12-14T06:10:53.719Z,99024.11
2018-12-14T06:12:23.742Z,99025.55
2018-12-14T06:14:10.415Z,99027.17
2018-12-14T06:15:40.438Z,99024.47
2018-12-14T06:17:10.438Z,99024.27
2018-12-14T06:18:40.319Z,99030.23
2018-12-14T06:20:10.210Z,99028.77
2018-12-14T06:21:40.112Z,99028.05
2018-12-14T06:23:10.008Z,99026.98
2018-12-14T06:24:39.991Z,99031.34
2018-12-14T06:26:09.902Z,99029.69
2018-12-14T06:27:39.782Z,99037.66
2018-12-14T06:29:09.667Z,99030.25
2018-12-14T06:30:39.566Z,99035.11
2018-12-14T06:32:09.489Z,99038.01
2018-12-14T06:33:39.374Z,99040.36
2018-12-14T06:35:09.379Z,99038.53
2018-12-14T06:36:39.275Z,99038.01
2018-12-14T06:38:09.160Z,99040.88
2018-12-14T06:39:39.055Z,99038.74
2018-12-14T06:41:09.064Z,99038.72
2018-12-14T06:42:38.963Z,99042.53
2018-12-14T06:44:08.844Z,99045.94
2018-12-14T06:45:38.741Z,99049.94
2018-12-14T06:47:08.644Z,99050.63
2018-12-14T06:48:39.231Z,99051.89
2018-12-14T06:50:09.123Z,99052.61
2018-12-14T06:51:39.034Z,99054.94
2018-12-14T06:53:09.263Z,99060.89
2018-12-14T06:54:39.139Z,99059.42
2018-12-14T06:56:09.022Z,99064.66
2018-12-14T06:57:39.147Z,99066.81
2018-12-14T06:59:09.189Z,99063.25
2018-12-14T07:00:39.132Z,99064.86
2018-12-14T07:02:09.155Z,99062.91
2018-12-14T07:03:39.058Z,99063.80
2018-12-14T07:05:09.033Z,99066.88
2018-12-14T07:06:38.966Z,99063.44
2018-12-14T07:08:08.939Z,99066.70
2018-12-14T07:09:38.871Z,99065.08
2018-12-14T07:11:08.792Z,99071.92
2018-12-14T07:12:38.749Z,99070.13
2018-12-14T07:14:08.659Z,99076.63
2018-12-14T07:15:38.768Z,99081.69
2018-12-14T07:17:08.716Z,99076.25
2018-12-14T07:18:38.871Z,99080.25
2018-12-14T07:20:09.142Z,99085.10
2018-12-14T07:21:39.365Z,99084.40
2018-12-14T07:23:09.356Z,99088.70
2018-12-14T07:24:39.484Z,99094.84
2018-12-14T07:26:09.396Z,99092.48
2018-12-14T07:28:00.442Z,99092.48
2018-12-14T07:29:30.354Z,99090.48
2018-12-14T07:31:00.352Z,99097.89
2018-12-14T07:32:30.287Z,99094.14
2018-12-14T07:34:00.354Z,99089.44
2018-12-14T07:35:30.287Z,99095.20
2018-12-14T07:37:00.256Z,99093.57
2018-12-14T07:38:30.508Z,99091.39
2018-12-14T07:40:00.462Z,99097.54
2018-12-14T07:41:30.552Z,99095.40
2018-12-14T07:43:00.530Z,99104.03
2018-12-14T07:44:30.642Z,99104.03
2018-12-14T07:46:00.767Z,99107.12
2018-12-14T07:47:30.774Z,99108.54
2018-12-14T07:49:00.721Z,99110.72
2018-12-14T07:50:30.683Z,99114.33
2018-12-14T07:52:00.657Z,99115.23
2018-12-14T07:53:30.764Z,99116.50
2018-12-14T07:55:00.747Z,99117.04
2018-12-14T07:56:30.787Z,99121.19
2018-12-14T07:58:00.831Z,99124.23
2018-12-14T07:59:30.785Z,99126.21
2018-12-14T08:01:00.868Z,99121.54
2018-12-14T08:02:32.031Z,99119.23
2018-12-14T08:04:02.218Z,99128.06
2018-12-14T08:05:32.274Z,99126.98
2018-12-14T08:07:02.463Z,99127.33
2018-12-14T08:08:32.528Z,99127.85
2018-12-14T08:10:03.639Z,99135.25
2018-12-14T08:11:33.747Z,99131.28
2018-12-14T08:13:04.079Z,99140.83
2018-12-14T08:14:34.040Z,99142.67
2018-12-14T08:16:04.151Z,99142.47
2018-12-14T08:17:34.211Z,99141.03
2018-12-14T08:19:06.333Z,99146.10
2018-12-14T08:20:36.544Z,99146.28
2018-12-14T08:22:14.015Z,99147.20
2018-12-14T08:23:44.467Z,99148.07
2018-12-14T08:25:14.666Z,99149.88
2018-12-14T08:26:44.665Z,99154.55
2018-12-14T08:28:14.698Z,99154.91
2018-12-14T08:29:44.696Z,99155.09
2018-12-14T08:31:14.801Z,99159.78
2018-12-14T08:32:44.799Z,99157.45
2018-12-14T08:34:14.868Z,99159.66
2018-12-14T08:35:44.874Z,99162.52
2018-12-14T08:37:14.773Z,99158.14
2018-12-14T09:29:17.442Z,99210.73
2018-12-14T09:30:47.314Z,99215.44
2018-12-14T09:32:17.187Z,99211.47
2018-12-14T09:33:47.305Z,99213.27
2018-12-14T09:35:17.251Z,99217.95
2018-12-14T09:36:47.399Z,99217.97
2018-12-14T09:38:17.406Z,99215.47
2018-12-14T09:39:47.535Z,99221.78
2018-12-14T09:41:17.878Z,99223.06
2018-12-14T09:42:48.009Z,99220.54
2018-12-14T09:44:18.041Z,99220.91
2018-12-14T09:45:48.186Z,99222.87
2018-12-14T09:47:18.194Z,99223.98
2018-12-14T09:48:48.205Z,99219.09
2018-12-14T09:50:18.279Z,99220.34
2018-12-14T09:51:48.277Z,99219.59
2018-12-14T09:53:18.366Z,99215.63
2018-12-14T09:54:48.376Z,99220.34
2018-12-14T09:56:18.403Z,99219.64
2018-12-14T09:57:48.512Z,99224.66
2018-12-14T09:59:18.613Z,99216.02
2018-12-14T10:00:48.599Z,99226.48
2018-12-14T10:02:18.628Z,99223.76
2018-12-14T10:03:48.890Z,99217.24
2018-12-14T10:05:19.055Z,99232.80
2018-12-14T10:06:49.188Z,99223.41
2018-12-14T10:08:19.299Z,99226.31
2018-12-14T10:09:49.340Z,99226.31
2018-12-14T10:11:19.724Z,99228.67
2018-12-14T10:12:49.875Z,99222.87
2018-12-14T10:14:19.864Z,99225.75
2018-12-14T10:15:51.011Z,99225.41
2018-12-14T10:17:21.634Z,99219.62
2018-12-14T10:18:52.221Z,99222.87
2018-12-14T10:20:22.476Z,99225.79
2018-12-14T10:21:52.551Z,99223.79
2018-12-14T10:23:22.598Z,99217.29
2018-12-14T10:24:52.621Z,99217.99
2018-12-14T10:26:22.617Z,99224.31
2018-12-14T10:27:52.566Z,99219.47
2018-12-14T10:29:22.535Z,99216.91
2018-12-14T10:30:52.525Z,99220.53
2018-12-14T10:32:22.615Z,99211.16
2018-12-14T10:33:52.587Z,99213.14
2018-12-14T10:35:22.630Z,99218.02
2018-12-14T10:36:52.714Z,99214.22
2018-12-14T10:38:22.812Z,99212.05
2018-12-14T10:39:53.766Z,99210.80
2018-12-14T10:41:23.808Z,99211.32
2018-12-14T10:42:53.809Z,99212.76
2018-12-14T10:44:24.026Z,99206.82
2018-12-14T10:45:54.217Z,99204.82
2018-12-14T10:47:24.265Z,99206.79
2018-12-14T10:48:54.305Z,99213.11
2018-12-14T10:50:24.327Z,99209.53
2018-12-14T10:51:54.564Z,99204.82
2018-12-14T10:53:25.270Z,99207.70
2018-12-14T10:54:55.633Z,99203.55
2018-12-14T10:56:25.702Z,99199.03
2018-12-14T10:57:55.779Z,99204.45
2018-12-14T10:59:25.963Z,99200.13
2018-12-14T11:01:01.888Z,99201.93
2018-12-14T11:02:31.880Z,99207.17
2018-12-14T11:04:01.951Z,99205.89
2018-12-14T11:05:31.981Z,99199.23
2018-12-14T11:07:02.037Z,99201.55
2018-12-14T11:08:32.458Z,99205.37
2018-12-14T11:10:02.724Z,99199.02
2018-12-14T11:11:32.766Z,99202.81
2018-12-14T11:13:02.784Z,99206.27
2018-12-14T11:14:32.855Z,99194.88
2018-12-14T11:16:03.033Z,99201.19
2018-12-14T11:17:33.136Z,99192.87
2018-12-14T11:19:03.506Z,99201.56
2018-12-14T11:20:33.656Z,99203.17
2018-12-14T11:22:03.980Z,99204.47
2018-12-14T11:23:34.124Z,99200.30
2018-12-14T11:25:05.204Z,99197.77
2018-12-14T11:26:35.517Z,99200.12
2018-12-14T11:28:05.923Z,99196.88
2018-12-14T11:29:36.058Z,99194.36
2018-12-14T11:31:06.117Z,99192.36
2018-12-14T11:32:36.312Z,99193.27
2018-12-14T11:34:06.968Z,99189.65
2018-12-14T11:35:37.005Z,99189.09
2018-12-14T11:37:06.959Z,99180.98
2018-12-14T11:38:36.937Z,99188.38
2018-12-14T11:40:07.978Z,99183.51
2018-12-14T11:41:38.046Z,99190.35
2018-12-14T11:43:08.244Z,99189.65
2018-12-14T11:44:38.305Z,99184.58
2018-12-14T11:46:08.353Z,99184.78
2018-12-14T11:47:39.099Z,99191.09
2018-12-14T11:49:09.192Z,99188.20
2018-12-14T11:50:39.219Z,99187.86
2018-12-14T11:52:09.202Z,99188.20
2018-12-14T11:53:39.234Z,99189.84
2018-12-14T11:55:09.835Z,99191.82
2018-12-14T11:56:39.883Z,99188.73
2018-12-14T11:58:10.114Z,99183.86
2018-12-14T11:59:40.166Z,99191.09
2018-12-14T12:01:10.483Z,99187.29
2018-12-14T12:02:43.222Z,99183.86
2018-12-14T12:04:12.625Z,99185.81
2018-12-14T12:05:42.811Z,99190.70
2018-12-14T12:07:12.820Z,99194.16
2018-12-14T12:08:43.016Z,99193.61
2018-12-14T12:10:13.067Z,99188.20
2018-12-14T12:11:43.219Z,99193.27
2018-12-14T12:13:13.371Z,99190.90
2018-12-14T12:14:43.383Z,99186.94
2018-12-14T12:16:13.436Z,99190.38
2018-12-14T12:17:49.256Z,99190.73
2018-12-14T12:19:16.010Z,99189.27
2018-12-14T12:20:46.041Z,99183.13
2018-12-14T12:22:16.078Z,99184.59
2018-12-14T12:23:46.119Z,99188.73
2018-12-14T12:25:16.103Z,99187.49
2018-12-14T12:26:46.233Z,99186.38
2018-12-14T12:28:16.348Z,99186.95
2018-12-14T12:29:46.679Z,99184.41
2018-12-14T12:31:16.766Z,99185.50
2018-12-14T12:32:48.159Z,99183.88
2018-12-14T12:34:18.346Z,99182.05
2018-12-14T12:35:48.413Z,99189.84
2018-12-14T12:37:19.104Z,99186.77
2018-12-14T12:38:49.116Z,99186.77
2018-12-14T12:40:19.089Z,99189.83
2018-12-14T12:41:49.075Z,99192.53
2018-12-14T12:45:01.262Z,99192.72
2018-12-14T12:46:31.607Z,99190.17
2018-12-14T12:48:01.882Z,99184.57
2018-12-14T12:49:31.790Z,99183.47
2018-12-14T12:51:03.348Z,99185.48
2018-12-14T12:52:33.701Z,99192.14
2018-12-14T12:54:03.795Z,99190.14
2018-12-14T12:55:33.960Z,99192.86
2018-12-14T12:57:04.056Z,99189.08
2018-12-14T12:58:34.034Z,99191.61
2018-12-14T13:00:04.257Z,99189.27
2018-12-14T13:01:34.362Z,99198.14
2018-12-14T13:03:04.410Z,99194.53
2018-12-14T13:04:34.751Z,99197.41
2018-12-14T13:06:04.762Z,99196.89
2018-12-14T13:07:34.850Z,99189.65
2018-12-14T13:09:05.987Z,99194.14
2018-12-14T13:10:36.008Z,99197.39
2018-12-14T13:12:06.070Z,99194.87
2018-12-14T13:13:36.093Z,99199.03
2018-12-14T13:15:06.506Z,99188.38
2018-12-14T13:16:36.595Z,99198.50
2018-12-14T13:18:06.598Z,99201.94
2018-12-14T13:21:20.011Z,99199.77
2018-12-14T13:22:49.900Z,99207.70
2018-12-14T13:24:19.863Z,99204.97
2018-12-14T13:25:49.858Z,99204.25
2018-12-14T13:27:20.492Z,99210.36
2018-12-14T13:28:51.811Z,99202.63
2018-12-14T13:30:22.090Z,99207.13
2018-12-14T13:31:52.088Z,99207.70
2018-12-14T13:33:22.695Z,99211.69
2018-12-14T13:34:52.672Z,99205.91
2018-12-14T13:36:22.978Z,99215.47
2018-12-14T13:37:52.953Z,99224.48
2018-12-14T13:39:22.965Z,99214.20
2018-12-14T13:40:53.052Z,99221.25
2018-12-14T13:42:23.305Z,99217.81
2018-12-14T13:43:53.319Z,99223.95
2018-12-14T13:45:23.331Z,99228.11
2018-12-14T13:46:53.388Z,99228.80
2018-12-14T13:48:23.525Z,99234.38
2018-12-14T13:49:53.694Z,99234.58
2018-12-14T13:51:23.709Z,99235.68
2018-12-14T13:52:53.723Z,99240.38
2018-12-14T13:54:23.733Z,99243.27
2018-12-14T13:55:53.779Z,99239.66
2018-12-14T13:57:23.807Z,99242.51
2018-12-14T13:58:53.792Z,99242.53
2018-12-14T14:00:24.310Z,99243.27
2018-12-14T14:01:54.338Z,99238.95
2018-12-14T14:03:24.355Z,99245.61
2018-12-14T14:04:54.314Z,99252.47
2018-12-14T14:06:24.337Z,99250.62
2018-12-14T14:07:54.432Z,99252.27
2018-12-14T14:09:24.629Z,99251.53
2018-12-14T14:10:54.617Z,99252.28
2018-12-14T14:12:30.634Z,99254.05
2018-12-14T14:13:57.293Z,99259.86
2018-12-14T14:15:27.729Z,99257.52
2018-12-14T14:16:58.031Z,99263.13
2018-12-14T14:18:28.191Z,99261.28
2018-12-14T14:19:58.484Z,99269.73
2018-12-14T14:21:29.245Z,99268.97
2018-12-14T14:22:59.468Z,99274.95
2018-12-14T14:24:29.433Z,99276.78
2018-12-14T14:25:59.483Z,99279.53
2018-12-14T14:27:29.645Z,99280.23
2018-12-14T14:28:59.557Z,99284.73
2018-12-14T14:30:29.486Z,99284.56
2018-12-14T14:31:59.443Z,99286.36
2018-12-14T14:33:29.390Z,99287.45
2018-12-14T14:34:59.523Z,99293.02
2018-12-14T14:36:29.485Z,99292.13
2018-12-14T14:37:59.492Z,99298.77
2018-12-14T14:39:29.387Z,99300.96
2018-12-14T14:40:59.420Z,99303.53
2018-12-14T14:42:29.444Z,99302.31
2018-12-14T14:43:59.349Z,99304.12
2018-12-14T14:45:30.271Z,99305.56
2018-12-14T14:47:00.305Z,99307.52
2018-12-14T14:48:30.276Z,99302.98
2018-12-14T14:50:00.231Z,99302.59
2018-12-14T14:51:31.101Z,99305.82
2018-12-14T14:53:01.116Z,99311.62
2018-12-14T14:54:31.110Z,99304.97
2018-12-14T14:56:01.005Z,99304.80
2018-12-14T14:57:31.402Z,99307.31
2018-12-14T14:59:01.339Z,99308.59
2018-12-14T15:00:32.254Z,99302.61
2018-12-14T15:02:02.318Z,99302.26
2018-12-14T15:03:33.270Z,99305.66
2018-12-14T15:05:03.864Z,99308.94
2018-12-14T15:06:33.903Z,99307.84
2018-12-14T15:08:04.020Z,99308.20
2018-12-14T15:09:33.942Z,99308.39
2018-12-14T15:11:03.846Z,99304.43
2018-12-14T15:12:33.785Z,99307.53
2018-12-14T15:14:03.951Z,99303.41
2018-12-14T15:15:33.880Z,99301.25
2018-12-14T15:17:03.800Z,99302.89
2018-12-14T15:18:33.771Z,99306.33
2018-12-14T15:20:04.394Z,99303.28
2018-12-14T15:21:34.770Z,99312.64
2018-12-14T15:23:04.847Z,99313.36
2018-12-14T15:24:34.761Z,99317.86
2018-12-14T15:26:04.785Z,99323.09
2018-12-14T15:27:34.840Z,99317.52
2018-12-14T15:29:04.896Z,99318.78
2018-12-14T15:30:34.856Z,99332.48
2018-12-14T15:32:04.863Z,99323.25
2018-12-14T15:33:34.831Z,99325.77
2018-12-14T15:35:05.180Z,99332.64
2018-12-14T15:36:35.127Z,99329.22
2018-12-14T15:38:05.180Z,99330.84
2018-12-14T15:39:35.103Z,99329.06
2018-12-14T15:41:05.215Z,99325.84
2018-12-14T15:42:35.148Z,99334.33
2018-12-14T15:44:05.239Z,99334.19
2018-12-14T15:45:35.466Z,99335.80
2018-12-14T15:47:05.552Z,99335.83
2018-12-14T15:48:35.658Z,99335.28
2018-12-14T15:50:06.507Z,99336.19
2018-12-14T15:51:36.426Z,99335.83
2018-12-14T15:53:06.619Z,99342.53
2018-12-14T15:54:36.498Z,99342.69
2018-12-14T15:56:06.407Z,99343.60
2018-12-14T15:57:36.331Z,99344.16
2018-12-14T15:59:06.383Z,99347.75
2018-12-14T16:00:36.565Z,99353.20
2018-12-14T16:02:06.814Z,99356.07
2018-12-14T16:03:38.049Z,99351.88
2018-12-14T16:05:08.206Z,99354.95
2018-12-14T16:06:38.090Z,99362.59
2018-12-14T16:08:08.006Z,99369.63
2018-12-14T16:09:37.895Z,99364.52
2018-12-14T16:11:07.903Z,99362.90
2018-12-14T16:12:37.793Z,99370.14
2018-12-14T16:14:08.054Z,99373.22
2018-12-14T16:15:38.034Z,99366.55
2018-12-14T16:17:08.741Z,99367.09
2018-12-14T16:18:38.962Z,99368.20
2018-12-14T16:20:10.086Z,99368.53
2018-12-14T16:21:40.052Z,99369.06
2018-12-14T16:23:10.037Z,99365.95
2018-12-14T16:24:40.219Z,99369.20
2018-12-14T16:26:10.727Z,99375.00
2018-12-14T16:27:40.919Z,99370.12
2018-12-14T16:29:12.877Z,99365.06
2018-12-14T16:30:42.950Z,99366.02
2018-12-14T16:32:12.858Z,99367.45
2018-12-14T16:33:42.891Z,99361.48
2018-12-14T16:35:12.839Z,99357.89
2018-12-14T16:36:42.863Z,99365.82
2018-12-14T16:38:13.135Z,99366.02
2018-12-14T16:39:43.116Z,99366.84
2018-12-14T16:41:13.355Z,99367.34
2018-12-14T16:42:43.455Z,99365.57
2018-12-14T16:44:13.547Z,99370.24
2018-12-14T16:45:43.481Z,99373.50
2018-12-14T16:47:13.613Z,99375.52
2018-12-14T16:48:43.712Z,99373.73
2018-12-14T16:50:14.661Z,99373.50
2018-12-14T16:51:44.649Z,99377.66
2018-12-14T16:53:14.809Z,99379.80
2018-12-14T16:54:44.731Z,99368.87
2018-12-14T16:56:14.880Z,99373.03
2018-12-14T16:57:44.818Z,99378.66
2018-12-14T16:59:14.991Z,99377.19
2018-12-14T17:00:44.999Z,99379.41
2018-12-14T17:02:15.190Z,99382.87
2018-12-14T17:03:45.407Z,99379.61
2018-12-14T17:05:15.460Z,99381.23
2018-12-14T17:06:45.528Z,99382.52
2018-12-14T17:08:15.631Z,99382.13
2018-12-14T17:09:45.743Z,99377.56
2018-12-14T17:11:15.783Z,99384.05
2018-12-14T17:12:45.821Z,99385.90
2018-12-14T17:14:15.758Z,99395.53
2018-12-14T17:15:45.671Z,99389.36
2018-12-14T17:17:15.620Z,99398.01
2018-12-14T17:18:45.692Z,99400.36
2018-12-14T17:20:15.685Z,99407.98
2018-12-14T17:21:45.599Z,99410.28
2018-12-14T17:23:15.533Z,99410.28
2018-12-14T17:24:45.478Z,99410.08
2018-12-14T17:26:15.410Z,99416.03
2018-12-14T17:27:45.355Z,99407.92
2018-12-14T17:29:15.371Z,99408.48
2018-12-14T17:30:45.416Z,99411.73
2018-12-14T17:32:15.359Z,99410.61
2018-12-14T17:33:45.307Z,99412.64
2018-12-14T17:35:15.268Z,99416.63
2018-12-14T17:36:45.195Z,99415.00
2018-12-14T17:38:15.132Z,99419.72
2018-12-14T17:39:45.274Z,99413.37
2018-12-14T17:41:15.212Z,99422.41
2018-12-14T17:42:45.594Z,99424.02
2018-12-14T17:44:15.736Z,99417.53
2018-12-14T17:45:45.715Z,99422.25
2018-12-14T17:47:15.687Z,99424.44
2018-12-14T17:48:45.664Z,99420.95
2018-12-14T17:50:15.713Z,99421.55
2018-12-14T17:51:45.775Z,99428.50
2018-12-14T17:53:15.734Z,99429.94
2018-12-14T17:54:45.714Z,99428.11
2018-12-14T17:56:15.648Z,99435.16
2018-12-14T17:57:45.604Z,99435.20
2018-12-14T17:59:15.701Z,99437.41
2018-12-14T18:00:45.773Z,99437.47
2018-12-14T18:02:17.001Z,99442.36
2018-12-14T18:03:46.945Z,99442.72
2018-12-14T18:05:16.896Z,99443.99
2018-12-14T18:06:46.872Z,99443.63
2018-12-14T18:08:16.940Z,99450.56
2018-12-14T18:09:46.899Z,99450.03
2018-12-14T18:11:16.918Z,99451.33
2018-12-14T18:12:46.990Z,99451.52
2018-12-14T18:14:16.956Z,99452.45
2018-12-14T18:15:47.031Z,99453.41
2018-12-14T18:17:16.947Z,99458.46
2018-12-14T18:18:46.865Z,99458.83
2018-12-14T18:20:16.938Z,99459.19
2018-12-14T18:21:46.841Z,99460.64
2018-12-14T18:23:16.759Z,99463.41
2018-12-14T18:24:47.272Z,99465.20
2018-12-14T18:26:17.166Z,99459.78
2018-12-14T18:27:47.103Z,99472.65
2018-12-14T18:29:17.059Z,99466.87
2018-12-14T18:30:47.078Z,99470.13
2018-12-14T18:32:17.220Z,99468.16
2018-12-14T18:33:47.159Z,99469.05
2018-12-14T18:35:17.159Z,99465.08